El Dorado, AR (71730)

1:45 PM CDT on July 13, 2014 (GMT -0500)
South Arkansas Regional At Goodwin (KELD) Elev 276 ft | 33.22 °N, 92.81 °W | Change Station

Current weather conditions updated 52 minutes ago

Clear
Clear
94 °F
Feels Like 101 °F
N
5
Wind Variable Wind from Variable

Today is forecast to be nearly the same temperature as yesterday.

Today
High -- | Low -- °F
--% Chance of Precip.
Yesterday
High -- | Low -- °F
Precip. -- in
6:11 AM 8:21 PM
Full, 97% visible
Pressure 30.06 in
Visibility 10.0 miles
Clouds Clear
Heat Index 101 °F
Dew Point 71 °F
Humidity 47%
Rainfall 0.00 in
Snow Depth Not available.
UV 12 out of 12
Pollen 3.20 out of 12
Air Quality Not available.
Flu Activity No Activity
METAR KELD 131753Z AUTO VRB04KT 10SM CLR 34/22 A3007 RMK AO2 SLP180 T03440217 10344 20222 58012

More Conditions Fewer Conditions

Pressure 30.06 in
Visibility 10.0 miles
Clouds Clear
Heat Index 101 °F
Dew Point 71 °F
Humidity 47%
Rainfall 0.00 in
Snow Depth Not available.
UV 12 out of 12
Pollen 3.20 out of 12
Air Quality Not available.
Flu Activity No Activity
METAR KELD 131753Z AUTO VRB04KT 10SM CLR 34/22 A3007 RMK AO2 SLP180 T03440217 10344 20222 58012

More Conditions Fewer Conditions

10-Day Weather Forecast

Almanac

Astronomy

Jul. 13, 2014 Rise Set
Actual Time 6:11 AM CDT 8:21 PM CDT
Civil Twilight 5:42 AM CDT 8:49 PM CDT
Nautical Twilight 5:08 AM CDT 9:23 PM CDT
Astronomical Twilight 4:31 AM CDT 10:01 PM CDT
Moon 9:18 PM CDT 7:35 AM CDT
Length of Visible Light 15h 06m
Length of Day
14h 10m
Tomorrow will be 0m 59s shorter.
Full, 97% of the Moon is Illuminated
Today
Full
Jul 18
Last Quarter
Jul 26
New
Aug 3
First Quarter
Aug 10
Full

Today's Extremes

State Highs State Lows

Community

WunderPhotos

Upload Photos

1,733,324 photos uploaded!

Nearby

Snow Depth

Station Depth Elevation
No new snow has been reported.

Earthquake Activity

City Distance Mag. Time & Date
No recent earthquake activity has been reported nearby.
Minimum magnitude displayed is 2.5.

Coastal Water Temperatures

Place Temperature
No Stations Reporting

Nearby Weather Stations

Station Location Temp. Heat Index Dew Point Humidity Wind Precip. Elev Updated Type
MesoWest NORPLT , Norphlet, AR 94 °F 90 °F - - North  at  - 0.00 in / hr 117 ft 12:10 PM CDT MADIS
MesoWest ELLIOT , Louann, AR 98 °F 93 °F - - North  at  - 0.00 in / hr 229 ft 11:35 AM CDT MADIS

Show More Stations Show Fewer Stations